createdAt,value
2018-04-19T00:00:38.989Z,16.53
2018-04-19T00:03:07.295Z,16.52
2018-04-19T00:05:36.374Z,16.57
2018-04-19T00:08:04.849Z,16.59
2018-04-19T00:10:33.922Z,16.57
2018-04-19T00:13:03.006Z,16.56
2018-04-19T00:15:31.348Z,16.58
2018-04-19T00:17:59.674Z,16.54
2018-04-19T00:20:28.767Z,16.49
2018-04-19T00:22:57.092Z,16.40
2018-04-19T00:25:25.431Z,16.38
2018-04-19T00:27:53.747Z,16.38
2018-04-19T00:30:22.064Z,16.35
2018-04-19T00:32:50.400Z,16.35
2018-04-19T00:35:19.485Z,16.34
2018-04-19T00:37:47.810Z,16.30
2018-04-19T00:40:16.134Z,16.34
2018-04-19T00:42:44.458Z,16.33
2018-04-19T00:45:12.794Z,16.32
2018-04-19T00:47:41.152Z,16.30
2018-04-19T00:50:09.473Z,16.29
2018-04-19T00:55:44.500Z,16.28
2018-04-19T00:58:13.131Z,16.28
2018-04-19T01:00:41.472Z,16.24
2018-04-19T01:03:09.808Z,16.21
2018-04-19T01:05:38.123Z,16.16
2018-04-19T01:08:06.436Z,16.18
2018-04-19T01:10:35.578Z,16.27
2018-04-19T01:13:03.925Z,16.37
2018-04-19T01:15:33.040Z,16.46
2018-04-19T01:18:01.361Z,16.44
2018-04-19T01:20:29.697Z,16.41
2018-04-19T01:22:59.670Z,16.46
2018-04-19T01:25:28.012Z,16.46
2018-04-19T01:27:56.328Z,16.48
2018-04-19T01:30:24.648Z,16.52
2018-04-19T01:32:53.712Z,16.49
2018-04-19T01:35:39.721Z,16.43
2018-04-19T01:38:08.062Z,16.36
2018-04-19T01:40:36.386Z,16.35
2018-04-19T01:43:04.726Z,16.29
2018-04-19T01:45:33.780Z,16.26
2018-04-19T01:48:02.886Z,16.27
2018-04-19T01:50:31.343Z,16.25
2018-04-19T01:52:59.658Z,16.25
2018-04-19T01:55:27.972Z,16.23
2018-04-19T01:57:56.488Z,16.20
2018-04-19T02:00:24.808Z,16.18
2018-04-19T02:02:53.126Z,16.21
2018-04-19T02:05:21.470Z,16.19
2018-04-19T02:07:50.592Z,16.18
2018-04-19T02:10:18.906Z,16.12
2018-04-19T02:12:47.221Z,16.07
2018-04-19T02:15:16.298Z,16.01
2018-04-19T02:17:45.396Z,15.98
2018-04-19T02:20:13.710Z,15.89
2018-04-19T02:22:42.038Z,15.85
2018-04-19T02:25:10.362Z,15.78
2018-04-19T02:27:39.467Z,15.76
2018-04-19T02:30:08.548Z,15.77
2018-04-19T02:32:36.872Z,15.71
2018-04-19T02:35:05.218Z,15.63
2018-04-19T02:37:34.319Z,15.57
2018-04-19T02:40:03.606Z,15.50
2018-04-19T02:42:31.941Z,15.42
2018-04-19T02:45:00.255Z,15.38
2018-04-19T02:47:28.562Z,15.31
2018-04-19T02:49:57.647Z,15.20
2018-04-19T02:52:25.980Z,15.08
2018-04-19T02:54:54.290Z,14.95
2018-04-19T02:57:22.632Z,14.92
2018-04-19T02:59:50.929Z,14.81
2018-04-19T03:02:19.265Z,14.69
2018-04-19T03:04:47.585Z,14.59
2018-04-19T03:07:15.914Z,14.50
2018-04-19T03:09:44.378Z,14.43
2018-04-19T03:12:12.696Z,14.34
2018-04-19T03:14:41.787Z,14.31
2018-04-19T03:17:10.877Z,14.25
2018-04-19T03:19:39.231Z,14.29
2018-04-19T03:22:07.563Z,14.25
2018-04-19T03:24:36.663Z,14.16
2018-04-19T03:27:05.765Z,14.08
2018-04-19T03:29:34.867Z,14.01
2018-04-19T03:32:03.966Z,13.99
2018-04-19T03:34:33.131Z,13.94
2018-04-19T03:37:01.479Z,13.90
2018-04-19T03:39:29.800Z,13.87
2018-04-19T03:41:58.141Z,13.82
2018-04-19T03:44:26.629Z,13.78
2018-04-19T03:46:55.031Z,13.76
2018-04-19T03:49:23.411Z,13.83
2018-04-19T03:51:51.757Z,13.86
2018-04-19T03:54:20.089Z,13.83
2018-04-19T03:56:48.443Z,13.84
2018-04-19T03:59:16.777Z,13.82
2018-04-19T04:01:45.103Z,13.73
2018-04-19T04:04:13.597Z,13.64
2018-04-19T04:06:41.989Z,13.59
2018-04-19T04:09:10.318Z,13.57
2018-04-19T04:11:39.432Z,13.52
2018-04-19T04:14:08.491Z,13.45
2018-04-19T04:30:19.853Z,13.19
2018-04-19T04:32:48.175Z,13.18
2018-04-19T04:35:16.515Z,13.19
2018-04-19T04:37:45.761Z,13.23
2018-04-19T04:40:14.115Z,13.28
2018-04-19T04:42:43.205Z,13.33
2018-04-19T04:45:12.299Z,13.37
2018-04-19T04:47:41.391Z,13.37
2018-04-19T04:50:09.724Z,13.41
2018-04-19T04:52:38.053Z,13.43
2018-04-19T04:55:06.375Z,13.48
2018-04-19T04:57:34.747Z,13.54
2018-04-19T05:00:03.059Z,13.56
2018-04-19T05:02:31.397Z,13.65
2018-04-19T05:05:00.507Z,13.73
2018-04-19T05:07:28.815Z,13.77
2018-04-19T05:09:57.143Z,13.82
2018-04-19T05:12:25.485Z,13.87
2018-04-19T05:14:53.799Z,13.93
2018-04-19T05:17:22.141Z,13.99
2018-04-19T05:19:50.465Z,14.06
2018-04-19T05:22:18.835Z,14.13
2018-04-19T05:24:47.173Z,14.21
2018-04-19T05:27:15.504Z,14.33
2018-04-19T05:29:43.803Z,14.44
2018-04-19T05:32:12.115Z,14.52
2018-04-19T05:34:40.469Z,14.67
2018-04-19T05:37:09.575Z,14.75
2018-04-19T05:39:39.035Z,14.81
2018-04-19T05:42:07.360Z,14.89
2018-04-19T05:44:36.521Z,15.00
2018-04-19T05:47:04.847Z,15.13
2018-04-19T05:49:33.941Z,15.32
2018-04-19T05:52:03.013Z,15.45
2018-04-19T05:54:31.387Z,15.59
2018-04-19T05:56:59.695Z,15.73
2018-04-19T05:59:28.021Z,15.85
2018-04-19T06:01:56.337Z,15.94
2018-04-19T06:04:24.656Z,16.07
2018-04-19T06:06:53.797Z,16.16
2018-04-19T06:09:22.187Z,16.27
2018-04-19T06:11:50.624Z,16.39
2018-04-19T06:14:19.724Z,16.50
2018-04-19T06:16:48.054Z,16.58
2018-04-19T06:19:17.662Z,16.69
2018-04-19T06:21:45.985Z,16.81
2018-04-19T06:24:15.166Z,16.90
2018-04-19T06:26:43.491Z,16.98
2018-04-19T06:29:11.824Z,17.08
2018-04-19T06:31:40.169Z,17.16
2018-04-19T06:34:08.557Z,17.26
2018-04-19T06:36:36.874Z,17.36
2018-04-19T06:39:06.858Z,17.47
2018-04-19T06:41:35.220Z,17.61
2018-04-19T06:44:03.624Z,17.68
2018-04-19T06:46:31.959Z,17.80
2018-04-19T06:49:00.283Z,17.93
2018-04-19T06:51:28.594Z,18.04
2018-04-19T06:53:56.908Z,18.18
2018-04-19T06:56:25.998Z,18.32
2018-04-19T06:58:54.316Z,18.50
2018-04-19T07:01:22.622Z,18.67
2018-04-19T07:03:50.943Z,18.80
2018-04-19T07:06:19.270Z,18.91
2018-04-19T07:08:47.599Z,19.02
2018-04-19T07:11:15.953Z,19.15
2018-04-19T07:13:44.273Z,19.30
2018-04-19T07:16:12.596Z,19.43
2018-04-19T07:18:41.016Z,19.54
2018-04-19T07:21:09.365Z,19.66
2018-04-19T07:23:37.693Z,19.81
2018-04-19T07:26:06.053Z,19.97
2018-04-19T07:28:34.361Z,20.12
2018-04-19T07:31:02.696Z,20.25
2018-04-19T07:33:31.004Z,20.35
2018-04-19T07:35:59.329Z,20.41
2018-04-19T07:38:28.412Z,20.50
2018-04-19T07:40:56.752Z,20.64
2018-04-19T07:43:25.073Z,20.74
2018-04-19T07:45:53.398Z,20.86
2018-04-19T07:48:21.718Z,20.98
2018-04-19T07:50:50.043Z,21.08
2018-04-19T07:53:19.140Z,21.19
2018-04-19T07:55:48.236Z,21.34
2018-04-19T07:58:17.324Z,21.45
2018-04-19T08:00:45.656Z,21.52
2018-04-19T08:03:13.973Z,21.65
2018-04-19T08:05:43.075Z,21.81
2018-04-19T08:08:11.403Z,21.92
2018-04-19T08:10:39.800Z,22.04
2018-04-19T08:13:08.121Z,22.18
2018-04-19T08:15:36.456Z,22.35
2018-04-19T08:18:05.442Z,22.54
2018-04-19T08:20:33.779Z,22.74
2018-04-19T08:23:02.101Z,22.90
2018-04-19T08:25:30.435Z,23.07
2018-04-19T08:27:59.578Z,23.26
2018-04-19T08:30:28.070Z,23.42
2018-04-19T08:32:56.516Z,23.53
2018-04-19T08:35:24.868Z,23.68
2018-04-19T08:37:53.202Z,23.83
2018-04-19T08:40:22.306Z,23.98
2018-04-19T08:42:51.399Z,24.14
2018-04-19T08:45:20.494Z,24.28
2018-04-19T08:47:48.835Z,24.39
2018-04-19T08:50:17.187Z,24.59
2018-04-19T08:52:45.502Z,24.79
2018-04-19T08:55:13.834Z,24.89
2018-04-19T08:57:42.960Z,25.01
2018-04-19T09:00:11.278Z,25.15
2018-04-19T09:02:39.592Z,25.28
2018-04-19T09:05:08.672Z,25.40
2018-04-19T09:07:37.761Z,25.55
2018-04-19T09:10:06.080Z,25.67
2018-04-19T09:12:35.237Z,25.78
2018-04-19T09:15:03.543Z,25.89
2018-04-19T09:17:31.862Z,26.01
2018-04-19T09:20:00.195Z,26.11
2018-04-19T09:22:28.507Z,26.25
2018-04-19T09:24:57.578Z,26.34
2018-04-19T09:27:25.906Z,26.40
2018-04-19T09:29:54.241Z,26.50
2018-04-19T09:32:22.577Z,26.58
2018-04-19T09:34:50.898Z,26.63
2018-04-19T09:37:19.219Z,26.69
2018-04-19T09:39:47.582Z,26.75
2018-04-19T09:42:15.942Z,26.84
2018-04-19T09:44:44.269Z,26.93
2018-04-19T09:47:12.590Z,27.01
2018-04-19T09:49:40.932Z,27.12
2018-04-19T09:52:10.021Z,27.20
2018-04-19T09:54:39.173Z,27.23
2018-04-19T09:57:07.651Z,27.31
2018-04-19T09:59:35.993Z,27.39
2018-04-19T10:02:05.066Z,27.44
2018-04-19T10:04:34.200Z,27.53
2018-04-19T10:07:02.523Z,27.56
2018-04-19T10:09:30.828Z,27.59
2018-04-19T10:11:59.165Z,27.72
2018-04-19T10:14:27.483Z,27.85
2018-04-19T10:16:55.792Z,27.92
2018-04-19T10:19:24.896Z,28.00
2018-04-19T10:21:53.992Z,28.09
2018-04-19T10:24:23.079Z,28.16
2018-04-19T10:26:52.196Z,28.26
2018-04-19T10:29:21.320Z,28.37
2018-04-19T10:31:50.453Z,28.47
2018-04-19T10:34:18.801Z,28.54
2018-04-19T10:36:47.130Z,28.67
2018-04-19T10:39:15.462Z,28.78
2018-04-19T10:41:43.788Z,28.91
2018-04-19T10:44:12.115Z,29.07
2018-04-19T10:46:41.211Z,29.23
2018-04-19T10:49:10.323Z,29.44
2018-04-19T10:51:38.628Z,29.58
2018-04-19T10:54:07.034Z,29.76
2018-04-19T10:56:35.528Z,29.94
2018-04-19T10:59:03.838Z,30.19
2018-04-19T11:01:32.914Z,30.48
2018-04-19T11:04:02.741Z,30.72
2018-04-19T11:06:31.078Z,30.97
2018-04-19T11:08:59.508Z,31.24
2018-04-19T11:11:27.819Z,31.49
2018-04-19T11:13:56.169Z,31.77
2018-04-19T11:16:24.999Z,32.10
2018-04-19T11:18:53.360Z,32.42
2018-04-19T11:21:22.458Z,32.74
2018-04-19T11:23:51.585Z,33.08
2018-04-19T11:26:19.950Z,33.37
2018-04-19T11:28:48.267Z,33.68
2018-04-19T11:31:16.610Z,33.98
2018-04-19T11:33:45.729Z,34.35
2018-04-19T11:36:14.048Z,34.69
2018-04-19T11:38:42.452Z,35.06
2018-04-19T11:41:10.825Z,35.48
2018-04-19T11:43:39.376Z,35.83
2018-04-19T11:46:07.686Z,36.29
2018-04-19T11:48:36.080Z,36.78
2018-04-19T11:51:04.428Z,37.38
2018-04-19T11:53:32.734Z,37.99
2018-04-19T11:56:01.223Z,38.68
2018-04-19T11:58:30.100Z,39.42
2018-04-19T12:00:58.466Z,40.25
2018-04-19T12:03:26.797Z,41.12
2018-04-19T12:05:55.123Z,41.91
2018-04-19T12:08:23.458Z,42.51
2018-04-19T12:10:51.788Z,42.85
2018-04-19T12:13:20.106Z,43.21
2018-04-19T12:15:48.428Z,43.85
2018-04-19T12:18:16.780Z,44.58
2018-04-19T12:20:45.855Z,44.86
2018-04-19T12:23:14.198Z,45.70
2018-04-19T12:25:42.528Z,46.26
2018-04-19T12:28:10.870Z,46.73
2018-04-19T12:30:39.182Z,47.17
2018-04-19T12:33:08.275Z,47.82
2018-04-19T12:35:36.670Z,48.34
2018-04-19T12:38:05.054Z,49.14
2018-04-19T12:40:33.364Z,49.89
2018-04-19T12:43:01.679Z,50.78
2018-04-19T12:45:30.075Z,51.77
2018-04-19T12:47:58.370Z,52.47
2018-04-19T12:50:26.682Z,53.03
2018-04-19T12:52:54.986Z,53.26
2018-04-19T12:55:24.060Z,53.26
2018-04-19T12:57:52.370Z,53.21
2018-04-19T13:00:21.448Z,53.46
2018-04-19T13:02:50.468Z,53.71
2018-04-19T13:05:19.560Z,54.01
2018-04-19T13:07:48.686Z,54.64
2018-04-19T13:10:17.059Z,54.73
2018-04-19T13:12:45.565Z,54.51
2018-04-19T13:15:13.920Z,55.01
2018-04-19T13:17:43.008Z,55.59
2018-04-19T13:20:12.093Z,55.92
2018-04-19T13:22:40.405Z,56.05
2018-04-19T13:25:08.720Z,56.41
2018-04-19T13:27:37.059Z,56.70
2018-04-19T13:30:07.761Z,56.50
2018-04-19T13:32:36.090Z,56.19
2018-04-19T13:35:04.429Z,56.31
2018-04-19T13:37:32.807Z,56.42
2018-04-19T13:40:01.126Z,56.53
2018-04-19T13:42:30.235Z,56.94
2018-04-19T13:44:58.561Z,57.05
2018-04-19T13:47:27.664Z,56.74
2018-04-19T13:49:55.968Z,56.41
2018-04-19T13:52:24.276Z,56.87
2018-04-19T13:54:53.352Z,57.52
2018-04-19T13:57:22.469Z,57.65
2018-04-19T13:59:51.573Z,57.72
2018-04-19T14:02:19.895Z,57.70
2018-04-19T14:04:48.228Z,57.78
2018-04-19T14:07:17.335Z,58.10
2018-04-19T14:09:45.686Z,58.08
2018-04-19T14:12:14.029Z,58.05
2018-04-19T14:14:42.361Z,57.91
2018-04-19T14:17:10.684Z,58.22
2018-04-19T14:19:38.986Z,58.31
2018-04-19T14:22:07.315Z,58.16
2018-04-19T14:24:36.407Z,58.34
2018-04-19T14:27:04.729Z,57.85
2018-04-19T14:29:41.924Z,57.53
2018-04-19T14:32:11.162Z,57.11
2018-04-19T14:34:43.450Z,56.73
2018-04-19T14:37:12.578Z,56.17
2018-04-19T14:39:41.352Z,55.91
2018-04-19T14:42:10.478Z,55.89
2018-04-19T14:44:38.802Z,55.83
2018-04-19T14:47:07.210Z,55.64
2018-04-19T14:49:35.769Z,55.66
2018-04-19T14:52:04.122Z,55.30
2018-04-19T14:54:32.632Z,54.65
2018-04-19T14:57:00.956Z,53.89
2018-04-19T14:59:30.056Z,53.58
2018-04-19T15:01:59.133Z,53.78
2018-04-19T15:04:27.479Z,53.94
2018-04-19T15:06:55.790Z,54.23
2018-04-19T15:09:24.162Z,54.18
2018-04-19T15:11:52.463Z,54.27
2018-04-19T15:14:20.865Z,54.62
2018-04-19T15:16:50.003Z,54.40
2018-04-19T15:19:18.337Z,53.99
2018-04-19T15:21:46.648Z,53.61
2018-04-19T15:24:14.973Z,53.21
2018-04-19T15:26:44.126Z,53.27
2018-04-19T15:29:12.481Z,53.84
2018-04-19T15:31:40.865Z,53.69
2018-04-19T15:34:09.223Z,53.97
2018-04-19T15:36:37.561Z,53.92
2018-04-19T15:39:06.726Z,53.51
2018-04-19T15:41:35.059Z,53.58
2018-04-19T15:44:03.387Z,53.51
2018-04-19T15:46:31.718Z,53.20
2018-04-19T15:49:00.023Z,52.94
2018-04-19T15:51:28.455Z,52.45
2018-04-19T15:53:57.596Z,51.38
2018-04-19T15:56:25.910Z,49.75
2018-04-19T15:58:54.303Z,49.62
2018-04-19T16:01:22.645Z,49.61
2018-04-19T16:03:51.001Z,49.49
2018-04-19T16:06:19.335Z,48.96
2018-04-19T16:08:47.800Z,48.18
2018-04-19T16:11:16.145Z,47.73
2018-04-19T16:13:44.438Z,47.16
2018-04-19T16:16:12.776Z,47.15
2018-04-19T16:18:41.106Z,47.56
2018-04-19T16:21:09.422Z,47.89
2018-04-19T16:23:37.728Z,47.84
2018-04-19T16:26:06.074Z,47.77
2018-04-19T16:28:34.394Z,48.16
2018-04-19T16:31:02.721Z,48.82
2018-04-19T16:33:31.179Z,49.01
2018-04-19T16:35:59.602Z,49.12
2018-04-19T16:38:27.933Z,49.19
2018-04-19T16:40:56.544Z,49.41
2018-04-19T16:43:24.871Z,49.37
2018-04-19T16:45:53.197Z,49.28
2018-04-19T16:48:22.337Z,49.20
2018-04-19T16:50:50.674Z,48.95
2018-04-19T16:53:20.042Z,48.57
2018-04-19T16:56:00.968Z,48.41
2018-04-19T16:58:30.349Z,48.25
2018-04-19T17:00:59.432Z,47.89
2018-04-19T17:03:27.790Z,47.56
2018-04-19T17:05:56.311Z,46.90
2018-04-19T17:08:24.638Z,46.34
2018-04-19T17:10:53.459Z,45.76
2018-04-19T17:13:22.022Z,45.23
2018-04-19T17:15:50.460Z,44.55
2018-04-19T17:18:18.889Z,44.26
2018-04-19T17:20:47.650Z,43.97
2018-04-19T17:23:16.007Z,43.69
2018-04-19T17:25:44.318Z,43.33
2018-04-19T17:28:13.392Z,42.97
2018-04-19T17:30:41.699Z,42.59
2018-04-19T17:33:10.769Z,42.13
2018-04-19T17:35:39.137Z,41.60
2018-04-19T17:38:07.462Z,40.99
2018-04-19T17:40:36.562Z,40.28
2018-04-19T17:43:05.672Z,39.51
2018-04-19T17:45:33.977Z,38.60
2018-04-19T17:48:02.340Z,37.56
2018-04-19T17:50:30.703Z,36.57
2018-04-19T17:52:59.897Z,35.60
2018-04-19T17:55:29.427Z,34.79
2018-04-19T17:57:57.984Z,34.06
2018-04-19T18:00:27.252Z,33.49
2018-04-19T18:02:56.465Z,32.91
2018-04-19T18:05:24.791Z,32.47
2018-04-19T18:07:53.880Z,32.03
2018-04-19T18:10:22.442Z,31.52
2018-04-19T18:12:52.712Z,31.04
2018-04-19T18:15:21.809Z,30.59
2018-04-19T18:17:50.913Z,30.15
2018-04-19T18:20:20.273Z,29.76
2018-04-19T18:22:49.246Z,29.36
2018-04-19T18:25:17.633Z,28.98
2018-04-19T18:27:46.074Z,28.68
2018-04-19T18:30:15.295Z,28.39
2018-04-19T18:32:43.652Z,28.10
2018-04-19T18:35:11.957Z,27.89
2018-04-19T18:37:40.267Z,27.56
2018-04-19T18:40:08.609Z,27.06
2018-04-19T18:42:38.377Z,26.61
2018-04-19T18:45:06.861Z,26.15
2018-04-19T18:47:35.204Z,25.75
2018-04-19T18:50:03.521Z,25.38
2018-04-19T18:52:31.858Z,25.03
2018-04-19T18:55:00.983Z,24.72
2018-04-19T18:57:29.859Z,24.44
2018-04-19T18:59:58.238Z,24.17
2018-04-19T19:02:31.672Z,23.91
2018-04-19T19:05:00.231Z,23.64
2018-04-19T19:07:30.674Z,23.40
2018-04-19T19:10:00.754Z,23.20
2018-04-19T19:12:35.029Z,23.01
2018-04-19T19:18:52.068Z,22.52
2018-04-19T19:21:20.632Z,22.34
2018-04-19T19:23:49.022Z,22.18
2018-04-19T19:26:18.120Z,22.06
2018-04-19T19:28:46.489Z,21.91
2018-04-19T19:31:14.995Z,21.78
2018-04-19T19:33:43.330Z,22.00
2018-04-19T19:36:11.635Z,21.72
2018-04-19T19:38:39.969Z,21.64
2018-04-19T19:41:09.050Z,21.46
2018-04-19T19:43:37.369Z,21.34
2018-04-19T19:46:05.709Z,21.21
2018-04-19T19:48:34.018Z,21.10
2018-04-19T19:51:02.330Z,21.02
2018-04-19T19:53:30.647Z,21.05
2018-04-19T19:55:58.980Z,21.03
2018-04-19T19:58:27.309Z,20.98
2018-04-19T20:00:55.649Z,20.88
2018-04-19T20:03:23.991Z,20.81
2018-04-19T20:05:53.076Z,20.73
2018-04-19T20:08:21.640Z,20.72
2018-04-19T20:10:49.961Z,20.83
2018-04-19T20:13:19.072Z,20.93
2018-04-19T20:15:48.151Z,21.00
2018-04-19T20:18:17.244Z,21.02
2018-04-19T20:20:45.624Z,21.01
2018-04-19T20:23:13.951Z,21.04
2018-04-19T20:25:42.280Z,21.00
2018-04-19T20:28:11.394Z,20.96
2018-04-19T20:30:39.764Z,20.93
2018-04-19T20:33:08.084Z,20.86
2018-04-19T20:35:36.415Z,20.74
2018-04-19T20:38:04.735Z,20.63
2018-04-19T20:40:33.900Z,20.59
2018-04-19T20:43:02.222Z,20.64
2018-04-19T20:45:31.373Z,20.68
2018-04-19T20:47:59.702Z,20.65
2018-04-19T20:50:28.804Z,20.58
2018-04-19T20:52:57.111Z,20.46
2018-04-19T20:55:25.442Z,20.37
2018-04-19T20:57:53.788Z,20.31
2018-04-19T21:00:23.194Z,20.28
2018-04-19T21:02:51.507Z,20.21
2018-04-19T21:05:19.842Z,20.17
2018-04-19T21:07:48.148Z,20.13
2018-04-19T21:10:16.618Z,20.08
2018-04-19T21:12:44.944Z,20.08
2018-04-19T21:15:13.345Z,20.03
2018-04-19T21:17:41.659Z,19.94
2018-04-19T21:20:09.992Z,19.87
2018-04-19T21:22:39.916Z,19.87
2018-04-19T21:25:08.242Z,19.81
2018-04-19T21:27:36.688Z,19.73
2018-04-19T21:30:05.787Z,19.73
2018-04-19T21:32:35.555Z,19.77
2018-04-19T21:35:03.887Z,19.87
2018-04-19T21:37:32.956Z,19.95
2018-04-19T21:40:01.300Z,19.92
2018-04-19T21:42:29.620Z,19.91
2018-04-19T21:44:57.957Z,19.90
2018-04-19T21:47:26.338Z,19.95
2018-04-19T21:49:55.397Z,19.89
2018-04-19T21:52:23.750Z,19.80
2018-04-19T21:54:52.078Z,19.72
2018-04-19T21:57:21.206Z,19.63
2018-04-19T21:59:50.380Z,19.64
2018-04-19T22:02:19.476Z,19.63
2018-04-19T22:04:48.557Z,19.61
2018-04-19T22:07:16.913Z,19.47
2018-04-19T22:09:45.250Z,19.40
2018-04-19T22:12:13.649Z,19.29
2018-04-19T22:14:42.014Z,19.17
2018-04-19T22:17:11.104Z,19.03
2018-04-19T22:19:40.194Z,18.98
2018-04-19T22:22:08.562Z,18.98
2018-04-19T22:24:38.482Z,18.94
2018-04-19T22:27:06.788Z,18.82
2018-04-19T22:29:35.908Z,18.70
2018-04-19T22:32:04.224Z,18.58
2018-04-19T22:34:32.559Z,18.53
2018-04-19T22:37:00.884Z,18.47
2018-04-19T22:39:29.210Z,18.39
2018-04-19T22:41:58.394Z,18.41
2018-04-19T22:44:26.724Z,18.35
2018-04-19T22:46:55.327Z,18.29
2018-04-19T22:49:23.675Z,18.35
2018-04-19T22:51:52.806Z,18.43
2018-04-19T22:54:21.133Z,18.31
2018-04-19T22:56:49.450Z,18.18
2018-04-19T22:59:17.763Z,18.05
2018-04-19T23:01:46.100Z,17.94
2018-04-19T23:04:15.311Z,17.84
2018-04-19T23:06:43.633Z,17.74
2018-04-19T23:09:11.950Z,17.67
2018-04-19T23:11:40.304Z,17.65
2018-04-19T23:14:08.660Z,17.56
2018-04-19T23:16:36.966Z,17.48
2018-04-19T23:19:05.288Z,17.43
2018-04-19T23:21:34.376Z,17.36
2018-04-19T23:24:02.688Z,17.28
2018-04-19T23:26:31.076Z,17.19
2018-04-19T23:29:00.152Z,17.15
2018-04-19T23:31:29.251Z,17.09
2018-04-19T23:33:58.362Z,17.02
2018-04-19T23:36:26.683Z,16.94
2018-04-19T23:38:55.014Z,16.87
2018-04-19T23:41:24.128Z,16.78
2018-04-19T23:43:52.439Z,16.70
2018-04-19T23:46:20.778Z,16.60
2018-04-19T23:48:49.868Z,16.54
2018-04-19T23:51:19.155Z,16.47
2018-04-19T23:53:47.613Z,16.39
2018-04-19T23:56:15.950Z,16.34
2018-04-19T23:58:45.195Z,16.33
